8WI3 weather

Rwnway Leasing Inc Nr 2 Airport
Plover, Wisconsin, United States

Public forecast

Using degrees Fahrenheit for public forecast. Weather courtesy of forecast.io.

Closest aviation weather report (METAR) to Rwnway Leasing Inc Nr 2 Airport

Closest report is Stevens Point Municipal Airport, 7.5 nm (14.0 km) N. Retrieved 2020/02/23 17:15 UTC (16 minutes ago):

KSTE 231715Z AUTO 24011G14KT 10SM CLR 05/M04 A2981 RMK AO2 T00471036

Closest aviation forecast (TAF) to Rwnway Leasing Inc Nr 2 Airport

Closest forecast is Central Wisconsin Airport, 21.9 nm (40.6 km) NNW. Retrieved 2020/02/23 12:33 UTC (5 hours ago):

TAF KCWA 231130Z 2312/2412 22006KT P6SM SKC TEMPO 2312/2314 4SM BR FM231500 25008KT P6SM SCT250 FM231700 27011G18KT P6SM SCT250 WS016/29035KT FM240000 29009G15KT P6SM SCT250 FM240200 29006KT P6SM BKN250 FM241000 33005KT P6SM SCT012